Time;durP1;ratioP1;P1;durP2;ratioP2;P2;SDS_P1;SDS_P2;PMS_P1;PMS_P2;Temp;Humidity;BMP_temperature;BMP_pressure;BME280_temperature;BME280_humidity;BME280_pressure;Samples;Min_cycle;Max_cycle;Signal;HPM_P1;HPM_P2
2024/01/31 00:01:21;;;;;;;11.98;3.50;;;;;;;8.06;100.00;103308.16;4956192;28;20122;-91
2024/01/31 00:03:47;;;;;;;9.85;3.30;;;;;;;7.98;100.00;103302.41;4955197;29;20118;-90
2024/01/31 00:06:15;;;;;;;11.52;3.13;;;;;;;7.98;100.00;103314.69;4956165;28;20067;-90
2024/01/31 00:08:40;;;;;;;12.48;3.72;;;;;;;8.04;100.00;103309.78;4956144;28;20082;-90
2024/01/31 00:11:09;;;;;;;14.23;3.15;;;;;;;8.02;100.00;103298.25;4956142;28;20035;-91
2024/01/31 00:13:34;;;;;;;9.88;3.53;;;;;;;8.05;100.00;103298.44;4954623;29;20031;-91
2024/01/31 00:16:00;;;;;;;11.77;3.40;;;;;;;8.09;100.00;103305.69;4955328;28;20023;-93
2024/01/31 00:18:25;;;;;;;10.20;3.08;;;;;;;8.15;100.00;103313.97;4938766;29;20035;-91
2024/01/31 00:20:50;;;;;;;15.77;3.40;;;;;;;8.10;100.00;103297.00;4955617;28;20373;-93
2024/01/31 00:23:18;;;;;;;10.55;3.33;;;;;;;8.21;100.00;103322.22;4956024;28;20461;-92
2024/01/31 00:25:44;;;;;;;6.47;3.10;;;;;;;8.05;100.00;103301.09;4955741;28;20043;-91
2024/01/31 00:28:10;;;;;;;12.27;3.40;;;;;;;8.21;100.00;103337.13;4938698;29;20070;-94
2024/01/31 00:30:35;;;;;;;6.68;3.05;;;;;;;8.09;100.00;103321.47;4954402;29;20066;-93
2024/01/31 00:33:00;;;;;;;9.20;3.35;;;;;;;8.16;100.00;103338.59;4938287;29;20043;-92
2024/01/31 00:35:26;;;;;;;9.95;3.10;;;;;;;8.17;100.00;103341.28;4954415;29;20491;-93
2024/01/31 00:37:53;;;;;;;13.90;3.40;;;;;;;8.11;100.00;103333.03;4955881;28;20031;-93
2024/01/31 00:40:19;;;;;;;13.90;3.50;;;;;;;8.09;100.00;103344.28;4954217;29;20063;-92
2024/01/31 00:42:44;;;;;;;8.23;3.20;;;;;;;8.02;100.00;103343.00;4954233;29;20477;-92
2024/01/31 00:45:11;;;;;;;8.90;3.50;;;;;;;8.07;100.00;103341.56;4955271;28;20063;-92
2024/01/31 00:47:37;;;;;;;11.93;3.08;;;;;;;8.05;100.00;103343.22;4937945;29;20475;-92
2024/01/31 00:50:03;;;;;;;9.23;3.08;;;;;;;8.03;100.00;103339.56;4937996;29;20043;-92
2024/01/31 00:52:28;;;;;;;8.45;2.97;;;;;;;8.01;100.00;103351.75;4938239;29;20042;-93
2024/01/31 00:54:54;;;;;;;9.95;3.30;;;;;;;8.10;100.00;103362.84;4954958;29;20142;-93
2024/01/31 00:57:19;;;;;;;13.15;3.10;;;;;;;8.08;100.00;103356.53;4937690;29;20035;-93
2024/01/31 00:59:45;;;;;;;13.48;3.40;;;;;;;7.99;100.00;103342.81;4921935;29;20031;-91
2024/01/31 01:02:10;;;;;;;13.13;3.20;;;;;;;8.06;100.00;103352.03;4922162;29;20441;-92
2024/01/31 01:04:35;;;;;;;9.70;3.30;;;;;;;8.01;100.00;103343.84;4922096;29;20138;-91
2024/01/31 01:07:01;;;;;;;9.18;2.90;;;;;;;7.85;100.00;103323.56;4937854;29;20094;-92
2024/01/31 01:09:26;;;;;;;8.30;2.80;;;;;;;8.03;100.00;103351.00;4937833;29;20028;-92
2024/01/31 01:11:52;;;;;;;8.90;2.92;;;;;;;8.06;100.00;103360.81;4955144;29;20034;-92
2024/01/31 01:14:17;;;;;;;9.15;2.80;;;;;;;7.97;100.00;103339.19;4944925;29;20038;-91
2024/01/31 01:16:43;;;;;;;7.63;2.83;;;;;;;7.97;100.00;103349.72;4966227;29;20059;-91
2024/01/31 01:19:08;;;;;;;10.43;3.00;;;;;;;7.98;100.00;103356.81;4961853;29;20035;-92
2024/01/31 01:21:35;;;;;;;12.40;3.45;;;;;;;7.92;100.00;103359.03;4956537;29;20366;-91
2024/01/31 01:24:00;;;;;;;12.57;3.08;;;;;;;7.91;100.00;103365.13;4955542;29;20038;-92
2024/01/31 01:26:26;;;;;;;8.77;2.83;;;;;;;7.85;100.00;103354.22;4938349;29;20129;-91
2024/01/31 01:28:51;;;;;;;11.60;3.17;;;;;;;7.94;100.00;103370.59;4939855;29;20031;-91
2024/01/31 01:31:18;;;;;;;10.90;2.85;;;;;;;7.90;100.00;103371.22;4942087;29;20039;-92
2024/01/31 01:33:44;;;;;;;7.30;2.80;;;;;;;7.92;100.00;103369.56;4958688;29;20061;-91
2024/01/31 01:36:09;;;;;;;7.60;2.83;;;;;;;7.82;100.00;103356.66;4959154;29;20063;-91
2024/01/31 01:38:36;;;;;;;12.63;3.13;;;;;;;7.82;100.00;103359.28;4941555;29;20039;-90
2024/01/31 01:41:02;;;;;;;8.93;2.83;;;;;;;7.92;100.00;103370.50;4958657;29;20042;-91
2024/01/31 01:43:28;;;;;;;14.25;3.50;;;;;;;7.86;100.00;103358.69;4958705;29;20134;-90
2024/01/31 01:46:10;;;;;;;8.63;2.83;;;;;;;7.85;100.00;103352.50;4958569;29;20051;-90
2024/01/31 01:48:36;;;;;;;12.30;3.03;;;;;;;7.86;100.00;103350.78;4930720;29;20480;-91
2024/01/31 01:51:02;;;;;;;6.65;2.83;;;;;;;7.78;100.00;103345.03;4958865;28;20043;-91
2024/01/31 01:53:30;;;;;;;6.53;2.83;;;;;;;7.95;100.00;103362.78;4958492;28;20039;-91
2024/01/31 01:55:55;;;;;;;9.65;2.97;;;;;;;7.95;100.00;103368.03;4957342;29;20058;-91
2024/01/31 01:58:21;;;;;;;15.75;2.97;;;;;;;7.95;100.00;103372.41;4941345;29;20027;-92
2024/01/31 02:00:47;;;;;;;8.77;2.58;;;;;;;7.95;100.00;103361.88;4941197;29;20046;-91
2024/01/31 02:03:17;;;;;;;7.15;3.00;;;;;;;7.91;100.00;103358.13;4957412;29;20499;-92
2024/01/31 02:05:44;;;;;;;10.40;3.00;;;;;;;7.95;100.00;103353.97;4956727;29;20032;-89
2024/01/31 02:08:11;;;;;;;8.80;2.70;;;;;;;8.01;100.00;103352.66;4956696;29;20035;-90
2024/01/31 02:10:36;;;;;;;8.98;3.05;;;;;;;8.03;100.00;103355.34;4940757;29;20496;-90
2024/01/31 02:13:02;;;;;;;13.32;3.13;;;;;;;7.94;100.00;103344.25;4941346;29;20039;-90
2024/01/31 02:15:27;;;;;;;11.48;2.55;;;;;;;7.97;100.00;103349.72;4956476;29;20035;-91
2024/01/31 02:17:53;;;;;;;8.27;2.75;;;;;;;7.90;100.00;103347.53;4956737;29;20073;-90
2024/01/31 02:20:18;;;;;;;8.55;2.72;;;;;;;7.97;100.00;103358.53;4940586;29;20038;-90
2024/01/31 02:22:47;;;;;;;6.22;2.53;;;;;;;7.91;100.00;103344.97;4940490;29;20047;-90
2024/01/31 02:25:16;;;;;;;7.30;2.55;;;;;;;7.87;100.00;103328.91;4957672;28;20027;-89
2024/01/31 02:27:41;;;;;;;6.63;2.60;;;;;;;7.89;100.00;103327.28;4956596;29;20090;-90
2024/01/31 02:30:07;;;;;;;8.98;2.83;;;;;;;7.99;100.00;103350.72;4957484;28;20035;-90
2024/01/31 02:32:33;;;;;;;9.63;3.00;;;;;;;8.03;100.00;103358.00;4957635;28;20110;-89
2024/01/31 02:34:59;;;;;;;6.15;2.60;;;;;;;8.00;100.00;103360.44;4957225;28;20472;-88
2024/01/31 02:37:24;;;;;;;8.50;2.53;;;;;;;8.07;100.00;103361.72;4957900;28;20050;-89
2024/01/31 02:39:50;;;;;;;6.40;2.53;;;;;;;8.04;100.00;103354.53;4940923;29;20058;-89
2024/01/31 02:42:15;;;;;;;10.05;2.70;;;;;;;7.94;100.00;103341.63;4957529;29;20038;-90
2024/01/31 02:44:41;;;;;;;7.55;2.67;;;;;;;7.91;100.00;103337.06;4959067;29;20031;-90
2024/01/31 02:47:08;;;;;;;10.07;2.45;;;;;;;7.95;100.00;103344.34;4958095;28;20511;-90
2024/01/31 02:49:34;;;;;;;8.15;2.58;;;;;;;7.86;100.00;103332.34;4963007;29;20062;-88
2024/01/31 02:51:59;;;;;;;8.20;2.65;;;;;;;7.90;100.00;103339.63;4970577;28;20460;-89
2024/01/31 02:54:24;;;;;;;5.32;2.45;;;;;;;7.99;100.00;103351.63;4964052;29;20043;-89
2024/01/31 02:56:50;;;;;;;9.73;2.75;;;;;;;7.92;100.00;103343.25;4960259;28;20034;-91
2024/01/31 02:59:15;;;;;;;7.90;2.83;;;;;;;7.90;100.00;103339.63;4958590;28;20042;-90
2024/01/31 03:01:47;;;;;;;7.70;2.55;;;;;;;7.90;100.00;103342.25;4957354;29;20436;-90
2024/01/31 03:04:13;;;;;;;8.75;2.70;;;;;;;7.89;100.00;103336.09;4958558;28;20039;-90
2024/01/31 03:06:38;;;;;;;5.55;2.33;;;;;;;7.86;100.00;103330.63;4959047;28;20107;-90
2024/01/31 03:09:04;;;;;;;8.48;2.80;;;;;;;7.90;100.00;103337.91;4957264;29;20388;-91
2024/01/31 03:11:30;;;;;;;7.55;2.70;;;;;;;7.84;100.00;103334.00;4958626;28;20065;-89
2024/01/31 03:13:56;;;;;;;8.23;2.72;;;;;;;7.78;100.00;103323.97;4956632;29;20063;-88
2024/01/31 03:16:21;;;;;;;8.05;2.85;;;;;;;7.82;100.00;103332.97;4957008;28;20037;-89
2024/01/31 03:18:47;;;;;;;9.38;2.72;;;;;;;7.85;100.00;103320.00;4957301;28;20031;-89
2024/01/31 03:21:12;;;;;;;9.60;2.70;;;;;;;7.91;100.00;103323.00;4957054;28;20396;-89
2024/01/31 03:23:38;;;;;;;8.98;2.60;;;;;;;8.04;100.00;103341.38;4939957;29;20123;-89
2024/01/31 03:26:03;;;;;;;6.32;2.80;;;;;;;8.03;100.00;103321.13;4956742;28;20373;-91
2024/01/31 03:28:29;;;;;;;7.05;2.80;;;;;;;8.11;100.00;103319.88;4956444;28;20444;-89
2024/01/31 03:30:54;;;;;;;9.00;3.03;;;;;;;8.09;100.00;103317.94;4956412;28;20067;-90
2024/01/31 03:33:19;;;;;;;7.65;3.25;;;;;;;7.95;100.00;103317.13;4956374;28;20042;-89
2024/01/31 03:35:45;;;;;;;8.95;2.80;;;;;;;8.04;100.00;103323.84;4956510;28;20031;-90
2024/01/31 03:38:10;;;;;;;11.00;2.92;;;;;;;7.86;100.00;103311.28;4955309;29;20032;-89
2024/01/31 03:40:36;;;;;;;9.57;3.08;;;;;;;7.87;100.00;103306.09;4955390;29;20135;-91
2024/01/31 03:43:02;;;;;;;5.20;2.58;;;;;;;7.90;100.00;103300.13;4956237;28;20416;-90
2024/01/31 03:45:27;;;;;;;6.47;2.78;;;;;;;7.87;100.00;103290.31;4956127;28;20046;-90
2024/01/31 03:47:53;;;;;;;5.90;2.75;;;;;;;7.90;100.00;103290.50;4954812;29;20074;-90
2024/01/31 03:50:19;;;;;;;7.72;2.55;;;;;;;7.95;100.00;103302.22;4953243;28;20411;-90
2024/01/31 03:52:45;;;;;;;8.60;3.20;;;;;;;7.91;100.00;103294.06;4954814;29;20047;-89
2024/01/31 03:55:11;;;;;;;8.57;3.30;;;;;;;7.93;100.00;103313.50;4955923;28;20373;-90
2024/01/31 03:57:37;;;;;;;9.77;3.00;;;;;;;7.88;100.00;103305.31;4955948;28;20037;-91
2024/01/31 04:00:08;;;;;;;8.57;3.08;;;;;;;7.80;100.00;103295.13;4955953;28;20114;-90
2024/01/31 04:02:35;;;;;;;9.10;3.08;;;;;;;7.86;100.00;103312.19;4956180;28;20035;-91
2024/01/31 04:05:00;;;;;;;7.18;3.05;;;;;;;7.84;100.00;103318.19;4955785;28;20039;-91
2024/01/31 04:07:28;;;;;;;7.57;3.22;;;;;;;7.79;100.00;103312.63;4956046;28;20057;-90
2024/01/31 04:09:53;;;;;;;8.30;3.17;;;;;;;7.79;100.00;103296.84;4955650;28;20469;-89
2024/01/31 04:12:19;;;;;;;5.22;2.75;;;;;;;7.84;100.00;103305.94;4955892;28;20034;-89
2024/01/31 04:14:44;;;;;;;11.35;3.10;;;;;;;7.83;100.00;103300.56;4955903;28;20040;-90
2024/01/31 04:17:10;;;;;;;8.85;3.42;;;;;;;7.66;100.00;103276.75;4955562;28;20031;-90
2024/01/31 04:19:36;;;;;;;9.35;3.60;;;;;;;7.70;100.00;103284.00;4954610;29;20079;-90
2024/01/31 04:22:02;;;;;;;10.25;3.13;;;;;;;7.75;100.00;103276.41;4955657;28;20035;-89
2024/01/31 04:24:27;;;;;;;6.55;3.45;;;;;;;7.57;100.00;103270.00;4960342;28;20093;-90
2024/01/31 04:26:52;;;;;;;9.82;3.75;;;;;;;7.62;100.00;103300.16;4965676;29;20035;-89
2024/01/31 04:29:18;;;;;;;6.70;3.30;;;;;;;7.60;100.00;103300.06;4960839;29;20042;-89
2024/01/31 04:31:43;;;;;;;11.40;3.67;;;;;;;7.62;100.00;103294.88;4955381;29;20168;-91
2024/01/31 04:34:09;;;;;;;12.30;3.78;;;;;;;7.53;100.00;103285.59;4922818;29;20048;-91
2024/01/31 04:36:34;;;;;;;8.27;3.53;;;;;;;7.53;100.00;103290.88;4938557;29;20046;-89
2024/01/31 04:39:00;;;;;;;10.57;3.63;;;;;;;7.55;100.00;103290.06;4955773;28;20126;-90
2024/01/31 04:41:26;;;;;;;12.05;3.50;;;;;;;7.44;100.00;103278.88;4955829;28;20032;-90
2024/01/31 04:43:53;;;;;;;9.10;3.53;;;;;;;7.45;100.00;103288.56;4954550;29;20031;-90
2024/01/31 04:46:18;;;;;;;16.65;4.03;;;;;;;7.49;100.00;103291.53;4955831;28;20035;-90
2024/01/31 04:48:44;;;;;;;13.38;4.45;;;;;;;7.52;100.00;103302.22;4955569;28;20051;-90
2024/01/31 04:51:09;;;;;;;10.02;3.88;;;;;;;7.52;100.00;103296.03;4955776;29;20059;-90
2024/01/31 04:53:34;;;;;;;7.47;3.92;;;;;;;7.45;100.00;103289.50;4937967;29;20126;-90
2024/01/31 04:56:00;;;;;;;11.65;3.90;;;;;;;7.46;100.00;103296.56;4938015;29;20046;-91
2024/01/31 04:58:25;;;;;;;8.20;3.80;;;;;;;7.45;100.00;103285.94;4922320;29;20621;-90
2024/01/31 05:00:51;;;;;;;14.63;4.13;;;;;;;7.45;100.00;103280.69;4955344;29;20074;-90
2024/01/31 05:03:16;;;;;;;11.73;4.25;;;;;;;7.51;100.00;103283.72;4955238;28;20050;-90
2024/01/31 05:05:41;;;;;;;15.68;4.55;;;;;;;7.61;100.00;103286.09;4938253;29;20042;-91
2024/01/31 05:08:07;;;;;;;13.30;4.70;;;;;;;7.52;100.00;103286.41;4955017;29;20061;-90
2024/01/31 05:10:34;;;;;;;15.25;4.72;;;;;;;7.39;100.00;103278.59;4937878;29;20519;-90
2024/01/31 05:13:00;;;;;;;10.32;4.95;;;;;;;7.41;100.00;103281.28;4922098;29;20031;-90
2024/01/31 05:15:25;;;;;;;15.02;5.13;;;;;;;7.42;100.00;103286.69;4955084;29;20039;-90
2024/01/31 05:17:51;;;;;;;15.77;5.55;;;;;;;7.39;100.00;103293.47;4955165;29;20039;-90
2024/01/31 05:20:16;;;;;;;13.57;5.78;;;;;;;7.20;100.00;103270.38;4938048;29;20043;-90
2024/01/31 05:22:42;;;;;;;18.02;5.65;;;;;;;7.23;100.00;103273.16;4955177;29;20035;-89
2024/01/31 05:25:08;;;;;;;11.45;6.20;;;;;;;7.33;100.00;103279.94;4955142;29;20090;-89
2024/01/31 05:27:35;;;;;;;15.27;6.20;;;;;;;7.37;100.00;103280.22;4937985;29;20126;-90
2024/01/31 05:30:01;;;;;;;13.43;6.00;;;;;;;7.23;100.00;103255.66;4954565;29;20383;-88
2024/01/31 05:32:27;;;;;;;19.42;6.20;;;;;;;7.34;100.00;103287.00;4922100;29;20102;-89
2024/01/31 05:34:52;;;;;;;14.98;6.88;;;;;;;7.37;100.00;103289.84;4955440;29;20067;-89
2024/01/31 05:37:17;;;;;;;14.30;6.53;;;;;;;7.31;100.00;103290.34;4938211;29;20380;-89
2024/01/31 05:39:43;;;;;;;19.85;7.18;;;;;;;7.08;100.00;103252.06;4921850;29;20046;-89
2024/01/31 05:42:08;;;;;;;17.45;6.80;;;;;;;7.34;100.00;103298.44;4937741;29;20035;-90
2024/01/31 05:44:33;;;;;;;14.02;7.13;;;;;;;7.23;100.00;103278.41;4938109;29;20125;-90
2024/01/31 05:46:59;;;;;;;16.52;7.38;;;;;;;7.28;100.00;103280.56;4955298;29;20423;-91
2024/01/31 05:49:24;;;;;;;16.10;8.02;;;;;;;7.41;100.00;103295.38;4954651;29;20058;-90
2024/01/31 05:51:51;;;;;;;19.45;8.35;;;;;;;7.34;100.00;103280.03;4955276;29;20031;-90
2024/01/31 05:54:16;;;;;;;17.20;7.72;;;;;;;7.45;100.00;103288.56;4938318;29;20086;-90
2024/01/31 05:56:42;;;;;;;20.45;8.27;;;;;;;7.42;100.00;103284.03;4923063;29;20039;-89
2024/01/31 05:59:08;;;;;;;14.57;7.70;;;;;;;7.58;100.00;103291.19;4940608;29;20118;-89
2024/01/31 06:01:34;;;;;;;16.88;7.35;;;;;;;7.41;100.00;103260.25;4960529;29;20062;-90
2024/01/31 06:04:00;;;;;;;17.15;8.48;;;;;;;7.58;100.00;103288.56;4963137;29;20409;-90
2024/01/31 06:06:25;;;;;;;22.73;8.40;;;;;;;7.41;100.00;103257.63;4965415;29;20074;-90
2024/01/31 06:08:50;;;;;;;18.75;8.60;;;;;;;7.54;100.00;103286.53;4966787;29;20031;-90
2024/01/31 06:11:16;;;;;;;17.80;8.75;;;;;;;7.58;100.00;103304.34;4933799;29;20039;-90
2024/01/31 06:13:41;;;;;;;18.38;7.80;;;;;;;7.50;100.00;103276.63;4928249;29;20487;-89
2024/01/31 06:16:07;;;;;;;20.90;9.45;;;;;;;7.53;100.00;103280.34;4928056;29;20046;-90
2024/01/31 06:18:34;;;;;;;22.55;9.63;;;;;;;7.45;100.00;103264.91;4961370;29;20115;-89
2024/01/31 06:21:00;;;;;;;20.73;8.70;;;;;;;7.60;100.00;103294.81;4929665;29;20036;-89
2024/01/31 06:23:26;;;;;;;19.88;8.85;;;;;;;7.49;100.00;103280.06;4943335;29;20063;-89
2024/01/31 06:25:51;;;;;;;23.70;9.68;;;;;;;7.42;100.00;103275.25;4941395;29;20047;-89
2024/01/31 06:28:17;;;;;;;21.40;9.35;;;;;;;7.27;100.00;103262.94;4941846;29;20047;-89
2024/01/31 06:30:44;;;;;;;23.33;9.23;;;;;;;7.28;100.00;103263.88;4925639;29;20476;-90
2024/01/31 06:33:10;;;;;;;23.88;10.65;;;;;;;7.19;100.00;103255.38;4941821;29;20047;-90
2024/01/31 06:35:40;;;;;;;19.67;9.23;;;;;;;7.25;100.00;103255.78;4958307;29;20090;-90
2024/01/31 06:38:05;;;;;;;20.70;9.65;;;;;;;7.24;100.00;103256.59;4958386;29;20155;-89
2024/01/31 06:40:31;;;;;;;20.70;9.10;;;;;;;7.27;100.00;103254.13;4940727;29;20126;-89
2024/01/31 06:43:00;;;;;;;21.13;10.55;;;;;;;7.23;100.00;103244.25;4940708;29;20039;-89
2024/01/31 06:45:27;;;;;;;21.02;10.65;;;;;;;7.30;100.00;103241.19;4940568;29;20046;-90
2024/01/31 06:47:53;;;;;;;25.77;10.77;;;;;;;7.38;100.00;103244.31;4908772;29;20062;-89
2024/01/31 06:50:20;;;;;;;23.50;10.38;;;;;;;7.23;100.00;103229.38;4957579;29;20468;-90
2024/01/31 06:52:48;;;;;;;19.42;10.38;;;;;;;7.15;100.00;103227.06;4940284;29;20066;-90
2024/01/31 06:55:14;;;;;;;20.60;10.43;;;;;;;7.18;100.00;103230.81;4957340;29;20090;-90
2024/01/31 06:57:40;;;;;;;20.83;10.43;;;;;;;7.14;100.00;103239.31;4957442;29;20114;-90
2024/01/31 07:00:06;;;;;;;22.05;10.90;;;;;;;7.12;100.00;103250.56;4957153;29;20027;-90
2024/01/31 07:02:32;;;;;;;21.85;11.88;;;;;;;6.97;100.00;103235.59;4957057;29;20063;-90
2024/01/31 07:04:57;;;;;;;22.20;10.70;;;;;;;6.96;100.00;103257.47;4957187;29;20062;-90
2024/01/31 07:07:23;;;;;;;26.20;11.77;;;;;;;6.83;100.00;103241.72;4924295;29;20035;-90
2024/01/31 07:09:48;;;;;;;26.80;12.30;;;;;;;6.91;100.00;103274.66;4939778;29;20121;-91
2024/01/31 07:12:13;;;;;;;22.25;11.40;;;;;;;6.82;100.00;103274.06;4908578;29;20099;-90
2024/01/31 07:14:45;;;;;;;26.88;12.02;;;;;;;6.96;100.00;103296.88;4957265;29;20386;-92
2024/01/31 07:17:10;;;;;;;23.60;11.45;;;;;;;6.88;100.00;103281.44;4939710;29;20484;-91
2024/01/31 07:19:36;;;;;;;27.45;11.93;;;;;;;6.92;100.00;103288.69;4957402;29;20062;-90
2024/01/31 07:22:01;;;;;;;26.98;12.48;;;;;;;7.03;100.00;103312.25;4954773;29;20441;-90
2024/01/31 07:24:29;;;;;;;25.05;11.55;;;;;;;7.01;100.00;103315.56;4920528;29;20134;-90
2024/01/31 07:26:55;;;;;;;21.63;10.05;;;;;;;7.16;100.00;103339.34;4905207;29;20090;-91
2024/01/31 07:29:20;;;;;;;25.33;11.88;;;;;;;7.19;100.00;103342.16;4937710;29;20429;-91
2024/01/31 07:31:46;;;;;;;23.90;11.65;;;;;;;7.22;100.00;103340.63;4937379;29;20042;-90
2024/01/31 07:34:11;;;;;;;24.17;12.15;;;;;;;7.26;100.00;103340.00;4937171;29;20104;-90
2024/01/31 07:36:37;;;;;;;24.55;12.23;;;;;;;7.29;100.00;103344.56;4940665;29;20070;-89
2024/01/31 07:39:04;;;;;;;29.10;12.00;;;;;;;7.28;100.00;103338.41;4927329;29;20059;-90
2024/01/31 07:41:30;;;;;;;21.33;11.90;;;;;;;7.21;100.00;103323.03;4925076;29;20036;-90
2024/01/31 07:43:56;;;;;;;22.23;12.00;;;;;;;7.24;100.00;103331.13;4938182;29;20036;-90
2024/01/31 07:46:21;;;;;;;25.38;11.98;;;;;;;7.27;100.00;103319.88;4936996;29;20127;-90
2024/01/31 07:48:46;;;;;;;26.17;11.95;;;;;;;7.36;100.00;103344.13;4922821;29;20495;-90
2024/01/31 07:51:12;;;;;;;22.25;11.40;;;;;;;7.28;100.00;103325.25;4904678;29;20536;-89
2024/01/31 07:53:38;;;;;;;22.02;11.25;;;;;;;7.28;100.00;103335.78;4936288;29;20040;-89
2024/01/31 07:56:04;;;;;;;27.20;12.45;;;;;;;7.39;100.00;103351.31;4937219;29;20036;-91
2024/01/31 07:58:30;;;;;;;20.33;10.82;;;;;;;7.41;100.00;103345.38;4935502;29;20036;-91
2024/01/31 08:00:56;;;;;;;27.35;12.20;;;;;;;7.32;100.00;103336.84;4937205;29;20062;-89
2024/01/31 08:03:21;;;;;;;22.08;12.68;;;;;;;7.42;100.00;103354.16;4937136;29;20436;-89
2024/01/31 08:05:46;;;;;;;26.58;12.70;;;;;;;7.40;100.00;103347.88;4937182;29;20047;-89
2024/01/31 08:08:12;;;;;;;23.25;12.43;;;;;;;7.36;100.00;103341.50;4919898;29;20067;-90
2024/01/31 08:10:38;;;;;;;27.10;11.75;;;;;;;7.36;100.00;103340.59;4935628;29;20036;-91
2024/01/31 08:13:04;;;;;;;26.50;12.30;;;;;;;7.37;100.00;103348.63;4936777;29;20389;-90
2024/01/31 08:15:31;;;;;;;24.95;12.48;;;;;;;7.32;100.00;103336.84;4936604;29;20068;-90
2024/01/31 08:17:57;;;;;;;27.92;13.75;;;;;;;7.13;100.00;103300.59;4937080;29;20106;-90
2024/01/31 08:20:22;;;;;;;28.48;13.60;;;;;;;7.29;100.00;103328.78;4936726;29;20432;-89
2024/01/31 08:22:48;;;;;;;29.63;14.15;;;;;;;7.27;100.00;103330.41;4936695;29;20032;-90
2024/01/31 08:25:13;;;;;;;23.90;12.30;;;;;;;7.32;100.00;103343.84;4936808;29;20047;-90
2024/01/31 08:27:38;;;;;;;27.63;13.52;;;;;;;7.25;100.00;103339.94;4936559;29;20385;-90
2024/01/31 08:30:05;;;;;;;28.90;13.10;;;;;;;7.07;100.00;103320.34;4934758;29;20039;-90
2024/01/31 08:32:34;;;;;;;25.83;13.75;;;;;;;7.10;100.00;103331.94;4936213;29;20038;-91
2024/01/31 08:35:00;;;;;;;24.15;12.85;;;;;;;7.00;100.00;103309.41;4936415;29;20544;-92
2024/01/31 08:37:26;;;;;;;27.95;13.65;;;;;;;7.01;100.00;103307.69;4934653;29;20066;-90
2024/01/31 08:39:52;;;;;;;26.35;13.32;;;;;;;7.00;100.00;103306.78;4934921;29;20071;-89
2024/01/31 08:42:17;;;;;;;27.90;13.43;;;;;;;7.05;100.00;103300.91;4935069;29;20040;-90
2024/01/31 08:44:43;;;;;;;31.63;14.43;;;;;;;6.94;100.00;103284.47;4936394;29;20119;-91
2024/01/31 08:47:08;;;;;;;37.13;16.02;;;;;;;6.99;100.00;103291.84;4935316;29;20465;-90
2024/01/31 08:49:34;;;;;;;29.63;14.43;;;;;;;7.10;100.00;103308.28;4919038;29;20476;-90
2024/01/31 08:51:59;;;;;;;33.67;14.75;;;;;;;7.13;100.00;103305.84;4936000;29;20495;-91
2024/01/31 08:54:27;;;;;;;29.15;15.25;;;;;;;7.14;100.00;103302.41;4936144;29;20032;-91
2024/01/31 08:56:53;;;;;;;39.13;16.05;;;;;;;7.13;100.00;103295.34;4936191;29;20036;-88
2024/01/31 08:59:18;;;;;;;34.83;16.20;;;;;;;7.19;100.00;103289.56;4934769;29;20153;-89
2024/01/31 09:01:44;;;;;;;32.38;14.55;;;;;;;7.26;100.00;103300.56;4934853;29;20040;-89
2024/01/31 09:04:10;;;;;;;36.17;18.52;;;;;;;7.15;100.00;103283.22;4936427;29;20059;-87
2024/01/31 09:06:35;;;;;;;36.92;17.98;;;;;;;7.13;100.00;103281.28;4934795;29;20074;-90
2024/01/31 09:09:01;;;;;;;35.45;17.98;;;;;;;7.13;100.00;103276.94;4934694;29;20039;-89
2024/01/31 09:11:26;;;;;;;41.28;18.15;;;;;;;7.14;100.00;103277.84;4935828;29;20238;-89
2024/01/31 09:13:51;;;;;;;38.55;17.85;;;;;;;7.16;100.00;103268.34;4942385;29;20028;-88
2024/01/31 09:16:17;;;;;;;43.17;18.33;;;;;;;7.20;100.00;103279.16;4944280;29;20054;-88
2024/01/31 09:18:42;;;;;;;36.75;17.92;;;;;;;7.14;100.00;103269.94;4936169;29;20040;-88
2024/01/31 09:21:07;;;;;;;39.35;18.35;;;;;;;7.03;100.00;103254.41;4919536;29;20070;-89
2024/01/31 09:23:33;;;;;;;36.88;17.65;;;;;;;7.15;100.00;103264.81;4934753;29;20055;-89
2024/01/31 09:26:01;;;;;;;37.65;18.70;;;;;;;7.09;100.00;103250.34;4934911;29;20131;-91
2024/01/31 09:28:27;;;;;;;39.78;18.65;;;;;;;7.09;100.00;103247.72;4935978;29;20164;-89
2024/01/31 09:30:52;;;;;;;38.25;18.55;;;;;;;6.98;100.00;103229.56;4918654;29;20035;-89
2024/01/31 09:33:17;;;;;;;39.90;17.98;;;;;;;7.13;100.00;103255.00;4919000;29;20068;-89
2024/01/31 09:35:43;;;;;;;35.47;18.92;;;;;;;7.03;100.00;103237.75;4936065;29;20032;-88
2024/01/31 09:38:08;;;;;;;38.17;18.73;;;;;;;7.13;100.00;103242.75;4919029;29;20040;-87
2024/01/31 09:40:34;;;;;;;36.88;18.50;;;;;;;7.15;100.00;103246.41;4936642;29;20468;-92
2024/01/31 09:42:59;;;;;;;36.03;18.75;;;;;;;7.12;100.00;103245.31;4936651;29;20032;-93
2024/01/31 09:45:27;;;;;;;36.65;19.58;;;;;;;7.13;100.00;103249.75;4936964;29;20051;-93
2024/01/31 09:47:56;;;;;;;41.30;19.67;;;;;;;7.01;100.00;103210.44;4934683;29;20032;-95
2024/01/31 09:50:21;;;;;;;37.78;18.67;;;;;;;7.11;100.00;103228.63;4939233;29;20075;-94
2024/01/31 09:52:53;;;;;;;38.78;18.52;;;;;;;7.13;100.00;103226.97;4923835;29;20090;-93
2024/01/31 09:55:19;;;;;;;41.42;19.02;;;;;;;7.22;100.00;103239.78;4940977;29;20508;-96
2024/01/31 09:57:45;;;;;;;38.70;19.27;;;;;;;7.17;100.00;103222.84;4939709;29;20028;-93
2024/01/31 10:00:11;;;;;;;37.00;19.65;;;;;;;7.15;100.00;103208.66;4922268;29;20111;-91
2024/01/31 10:02:37;;;;;;;40.30;21.80;;;;;;;7.15;100.00;103217.50;4906689;29;20504;-93
2024/01/31 10:05:06;;;;;;;36.00;17.95;;;;;;;7.20;100.00;103223.03;4939314;29;20036;-93
2024/01/31 10:07:32;;;;;;;33.88;19.65;;;;;;;7.26;100.00;103236.56;4939220;29;20480;-94
2024/01/31 10:09:57;;;;;;;31.33;16.92;;;;;;;7.33;100.00;103241.38;4922161;29;20062;-93
2024/01/31 10:12:23;;;;;;;35.22;18.30;;;;;;;7.25;100.00;103221.59;4921894;29;20123;-92
2024/01/31 10:14:52;;;;;;;31.13;16.35;;;;;;;7.35;100.00;103239.75;4938666;29;20028;-93
2024/01/31 10:17:22;;;;;;;29.90;15.18;;;;;;;7.35;100.00;103242.38;4921927;29;20178;-92
2024/01/31 10:19:49;;;;;;;31.80;15.70;;;;;;;7.42;100.00;103243.69;4906263;29;20035;-94
2024/01/31 10:22:14;;;;;;;27.25;14.70;;;;;;;7.41;100.00;103247.09;4922029;29;20036;-94
2024/01/31 10:24:40;;;;;;;31.33;16.80;;;;;;;7.46;100.00;103266.75;4921722;29;20046;-92
2024/01/31 10:27:09;;;;;;;28.38;15.68;;;;;;;7.43;100.00;103263.91;4921998;29;20043;-96
2024/01/31 10:29:45;;;;;;;28.80;13.30;;;;;;;7.44;100.00;103263.09;4906512;29;20042;-95
2024/01/31 10:32:15;;;;;;;21.00;11.55;;;;;;;7.48;100.00;103258.09;4941319;29;20091;-96
2024/01/31 10:34:42;;;;;;;23.77;13.00;;;;;;;7.49;100.00;103256.38;4938560;29;20449;-93
2024/01/31 10:37:09;;;;;;;22.50;12.85;;;;;;;7.44;100.00;103244.66;4921803;29;20046;-95
2024/01/31 10:39:36;;;;;;;23.15;13.20;;;;;;;7.56;100.00;103262.94;4922766;29;20032;-94
2024/01/31 10:42:04;;;;;;;20.52;11.77;;;;;;;7.44;100.00;103221.91;4939574;29;20035;-96
2024/01/31 10:44:31;;;;;;;21.60;12.40;;;;;;;7.55;100.00;103253.25;4943572;29;20039;-90
2024/01/31 10:46:57;;;;;;;20.58;11.93;;;;;;;7.66;100.00;103266.22;4928943;29;20228;-91
2024/01/31 10:49:22;;;;;;;19.77;11.75;;;;;;;7.70;100.00;103262.97;4950548;29;20103;-92
2024/01/31 10:51:53;;;;;;;21.10;11.85;;;;;;;7.64;100.00;103254.72;4932217;29;20040;-86
2024/01/31 10:54:24;;;;;;;22.27;11.90;;;;;;;7.70;100.00;103260.34;4939481;29;20469;-86
2024/01/31 10:56:49;;;;;;;18.95;10.85;;;;;;;7.51;100.00;103220.56;4938851;29;20028;-86
2024/01/31 10:59:16;;;;;;;19.70;10.98;;;;;;;7.59;100.00;103232.47;4938245;29;20036;-87
2024/01/31 11:01:52;;;;;;;18.50;10.95;;;;;;;7.67;100.00;103233.84;4938137;29;20032;-91
2024/01/31 11:04:18;;;;;;;18.60;10.65;;;;;;;7.73;100.00;103234.22;4938135;29;20031;-88
2024/01/31 11:06:49;;;;;;;16.27;9.73;;;;;;;7.73;100.00;103238.56;4921146;29;20086;-93
2024/01/31 11:09:32;;;;;;;16.25;10.88;;;;;;;7.60;100.00;103207.97;4938261;29;20059;-88
2024/01/31 11:12:11;;;;;;;19.25;9.85;;;;;;;7.66;100.00;103210.06;4938014;29;20048;-90